createdAt,value
2018-11-23T00:00:52.371Z,34.73
2018-11-23T00:03:23.978Z,41.23
2018-11-23T00:05:55.456Z,36.80
2018-11-23T00:08:27.186Z,36.67
2018-11-23T00:10:58.816Z,36.77
2018-11-23T00:13:30.491Z,42.30
2018-11-23T00:16:02.206Z,34.97
2018-11-23T00:18:33.787Z,34.33
2018-11-23T00:21:05.678Z,34.33
2018-11-23T00:23:37.478Z,32.43
2018-11-23T00:26:09.106Z,38.53
2018-11-23T00:28:40.820Z,39.63
2018-11-23T00:31:12.475Z,39.80
2018-11-23T00:33:44.148Z,38.97
2018-11-23T00:36:15.811Z,39.00
2018-11-23T00:38:47.393Z,40.17
2018-11-23T00:41:19.022Z,37.60
2018-11-23T00:43:50.585Z,38.20
2018-11-23T00:46:22.177Z,40.10
2018-11-23T00:48:53.799Z,38.07
2018-11-23T00:51:25.548Z,38.47
2018-11-23T00:53:57.013Z,39.80
2018-11-23T00:56:28.746Z,42.10
2018-11-23T00:59:00.358Z,38.57
2018-11-23T01:01:36.974Z,41.50
2018-11-23T01:04:08.532Z,37.53
2018-11-23T01:06:40.577Z,39.80
2018-11-23T01:09:14.357Z,37.47
2018-11-23T01:11:45.861Z,32.67
2018-11-23T01:14:17.532Z,38.67
2018-11-23T01:16:49.177Z,40.93
2018-11-23T01:19:20.971Z,43.70
2018-11-23T01:21:52.501Z,40.10
2018-11-23T01:24:24.249Z,41.97
2018-11-23T01:26:55.790Z,37.37
2018-11-23T01:29:27.457Z,42.60
2018-11-23T01:31:58.986Z,40.30
2018-11-23T01:34:30.668Z,39.23
2018-11-23T01:37:02.190Z,41.80
2018-11-23T01:39:33.765Z,37.20
2018-11-23T01:42:05.701Z,41.80
2018-11-23T01:44:42.242Z,39.40
2018-11-23T01:47:13.769Z,38.40
2018-11-23T01:49:45.454Z,41.40
2018-11-23T01:52:17.089Z,43.17
2018-11-23T01:54:48.826Z,42.87
2018-11-23T01:57:20.389Z,38.63
2018-11-23T01:59:52.041Z,41.40
2018-11-23T02:02:23.625Z,39.60
2018-11-23T02:04:55.351Z,42.57
2018-11-23T02:07:26.818Z,41.07
2018-11-23T02:09:58.461Z,41.33
2018-11-23T02:12:30.145Z,40.93
2018-11-23T02:15:01.777Z,42.87
2018-11-23T02:17:33.313Z,43.13
2018-11-23T02:20:05.016Z,41.10
2018-11-23T02:22:36.638Z,41.20
2018-11-23T02:25:08.387Z,35.57
2018-11-23T02:27:39.951Z,39.93
2018-11-23T02:30:15.016Z,41.17
2018-11-23T02:32:46.588Z,42.17
2018-11-23T02:35:18.510Z,35.73
2018-11-23T02:37:50.138Z,41.87
2018-11-23T02:40:22.130Z,42.60
2018-11-23T02:42:53.938Z,45.57
2018-11-23T02:45:25.421Z,38.80
2018-11-23T02:47:57.087Z,40.03
2018-11-23T02:50:28.642Z,41.93
2018-11-23T02:53:00.209Z,41.20
2018-11-23T02:55:31.749Z,43.10
2018-11-23T02:58:03.414Z,38.73
2018-11-23T03:00:34.951Z,39.47
2018-11-23T03:03:06.718Z,37.33
2018-11-23T03:05:38.279Z,41.03
2018-11-23T03:08:09.849Z,40.77
2018-11-23T03:10:41.531Z,39.30
2018-11-23T03:13:13.057Z,38.03
2018-11-23T03:15:44.848Z,39.20
2018-11-23T03:18:16.370Z,41.77
2018-11-23T03:20:48.052Z,45.73
2018-11-23T03:23:19.582Z,39.37
2018-11-23T03:25:51.267Z,41.90
2018-11-23T03:28:22.930Z,46.30
2018-11-23T03:30:54.639Z,39.83
2018-11-23T03:33:26.156Z,42.60
2018-11-23T03:35:57.843Z,45.20
2018-11-23T03:38:29.549Z,47.73
2018-11-23T03:41:01.238Z,41.97
2018-11-23T03:43:32.806Z,44.53
2018-11-23T03:46:04.421Z,41.93
2018-11-23T03:48:36.130Z,46.67
2018-11-23T03:51:07.915Z,47.40
2018-11-23T03:53:39.539Z,49.93
2018-11-23T03:56:11.243Z,48.30
2018-11-23T03:58:42.749Z,45.30
2018-11-23T04:01:14.414Z,47.33
2018-11-23T04:03:46.044Z,45.00
2018-11-23T04:06:17.739Z,48.40
2018-11-23T04:08:49.423Z,45.30
2018-11-23T04:11:21.046Z,48.63
2018-11-23T04:13:52.802Z,42.23
2018-11-23T04:16:24.258Z,47.60
2018-11-23T04:18:55.998Z,48.33
2018-11-23T04:21:27.577Z,45.73
2018-11-23T04:23:59.214Z,48.30
2018-11-23T04:26:30.778Z,48.67
2018-11-23T04:29:02.412Z,47.53
2018-11-23T04:31:33.973Z,53.47
2018-11-23T04:34:05.754Z,49.57
2018-11-23T04:36:37.369Z,46.83
2018-11-23T04:39:10.094Z,47.33
2018-11-23T04:41:46.291Z,43.37
2018-11-23T04:44:13.481Z,43.80
2018-11-23T04:46:45.026Z,54.23
2018-11-23T04:49:16.694Z,45.43
2018-11-23T04:51:48.331Z,46.70
2018-11-23T04:54:19.907Z,48.00
2018-11-23T04:56:51.429Z,46.00
2018-11-23T04:59:23.038Z,45.43
2018-11-23T05:01:54.655Z,50.73
2018-11-23T05:04:26.238Z,49.00
2018-11-23T05:06:58.030Z,47.30
2018-11-23T05:09:29.660Z,45.87
2018-11-23T05:12:01.293Z,47.20
2018-11-23T05:14:32.863Z,42.97
2018-11-23T05:17:04.506Z,51.47
2018-11-23T05:19:37.073Z,54.40
2018-11-23T05:22:08.554Z,51.37
2018-11-23T05:24:40.186Z,41.23
2018-11-23T05:27:11.763Z,54.23
2018-11-23T05:29:43.398Z,42.93
2018-11-23T05:32:15.038Z,48.27
2018-11-23T05:34:46.570Z,52.53
2018-11-23T05:37:18.134Z,47.77
2018-11-23T05:39:49.729Z,46.73
2018-11-23T05:42:21.254Z,42.13
2018-11-23T05:44:52.846Z,47.80
2018-11-23T05:47:24.534Z,45.40
2018-11-23T05:49:56.146Z,57.13
2018-11-23T05:52:27.838Z,44.17
2018-11-23T05:54:59.463Z,48.00
2018-11-23T05:57:31.267Z,50.50
2018-11-23T06:00:02.894Z,46.50
2018-11-23T06:02:34.575Z,53.07
2018-11-23T06:05:06.466Z,50.90
2018-11-23T06:07:38.337Z,50.27
2018-11-23T06:10:13.506Z,47.67
2018-11-23T06:12:45.196Z,46.73
2018-11-23T06:15:19.170Z,48.53
2018-11-23T06:17:50.990Z,51.10
2018-11-23T06:20:24.227Z,51.17
2018-11-23T06:22:56.434Z,55.67
2018-11-23T06:25:37.689Z,40.40
2018-11-23T06:28:09.396Z,47.77
2018-11-23T06:30:40.980Z,47.73
2018-11-23T06:33:38.460Z,51.73
2018-11-23T06:36:10.134Z,47.73
2018-11-23T06:38:41.738Z,50.47
2018-11-23T06:41:13.458Z,48.50
2018-11-23T06:43:45.272Z,55.50
2018-11-23T06:46:16.842Z,48.07
2018-11-23T06:48:48.626Z,48.53
2018-11-23T06:51:20.243Z,48.77
2018-11-23T06:53:51.889Z,56.33
2018-11-23T06:56:23.540Z,47.33
2018-11-23T06:58:55.202Z,49.67
2018-11-23T07:01:27.484Z,56.37
2018-11-23T07:03:58.522Z,55.13
2018-11-23T07:06:29.994Z,48.40
2018-11-23T07:09:01.623Z,50.03
2018-11-23T07:11:33.157Z,43.43
2018-11-23T07:14:04.759Z,53.87
2018-11-23T07:16:36.552Z,43.43
2018-11-23T07:19:08.225Z,45.30
2018-11-23T07:21:39.893Z,44.57
2018-11-23T07:24:11.430Z,53.20
2018-11-23T07:26:43.010Z,50.63
2018-11-23T07:29:14.594Z,51.07
2018-11-23T07:31:46.261Z,42.47
2018-11-23T07:34:18.078Z,53.20
2018-11-23T07:36:49.554Z,46.10
2018-11-23T07:39:37.243Z,43.30
2018-11-23T07:42:24.815Z,49.80
2018-11-23T07:44:56.546Z,40.67
2018-11-23T07:47:28.113Z,48.63
2018-11-23T07:49:59.866Z,42.50
2018-11-23T07:52:31.331Z,54.23
2018-11-23T07:55:03.065Z,48.67
2018-11-23T07:57:34.605Z,53.80
2018-11-23T08:00:12.542Z,50.03
2018-11-23T08:02:44.570Z,57.27
2018-11-23T08:05:17.086Z,49.03
2018-11-23T08:07:48.737Z,51.03
2018-11-23T08:10:19.265Z,50.07
2018-11-23T08:12:51.549Z,51.83
2018-11-23T08:15:25.603Z,55.50
2018-11-23T08:17:57.326Z,52.70
2018-11-23T08:20:29.105Z,51.83
2018-11-23T08:23:00.628Z,50.27
2018-11-23T08:25:32.273Z,44.17
2018-11-23T08:28:03.922Z,50.87
2018-11-23T08:30:35.598Z,44.70
2018-11-23T08:33:07.350Z,49.37
2018-11-23T08:35:38.993Z,57.13
2018-11-23T08:38:10.698Z,52.00
2018-11-23T08:40:42.234Z,51.83
2018-11-23T08:43:14.022Z,46.07
2018-11-23T08:45:45.638Z,55.50
2018-11-23T08:48:17.378Z,46.93
2018-11-23T08:50:48.933Z,48.23
2018-11-23T08:53:27.733Z,48.80
2018-11-23T08:55:52.327Z,50.80
2018-11-23T08:58:23.989Z,46.50
2018-11-23T09:00:55.947Z,49.10
2018-11-23T09:03:27.363Z,51.67
2018-11-23T09:05:58.977Z,47.00
2018-11-23T09:08:30.420Z,41.57
2018-11-23T09:11:01.979Z,56.40
2018-11-23T09:13:33.630Z,41.70
2018-11-23T09:16:05.886Z,43.80
2018-11-23T09:18:37.473Z,42.40
2018-11-23T09:21:09.402Z,44.87
2018-11-23T09:23:40.869Z,44.20
2018-11-23T09:26:12.421Z,42.80
2018-11-23T09:28:43.865Z,46.90
2018-11-23T09:31:15.926Z,48.20
2018-11-23T09:33:47.524Z,42.87
2018-11-23T09:36:19.087Z,45.23
2018-11-23T09:38:50.814Z,38.93
2018-11-23T09:41:22.365Z,40.37
2018-11-23T09:43:54.022Z,44.53
2018-11-23T09:46:25.557Z,40.47
2018-11-23T09:48:57.149Z,42.10
2018-11-23T09:51:28.942Z,38.23
2018-11-23T09:54:00.549Z,44.37
2018-11-23T09:56:32.146Z,37.60
2018-11-23T09:59:04.213Z,42.13
2018-11-23T10:01:35.879Z,40.23
2018-11-23T10:04:07.527Z,39.43
2018-11-23T10:06:39.041Z,36.93
2018-11-23T10:09:10.667Z,38.47
2018-11-23T10:11:42.341Z,37.43
2018-11-23T10:14:13.877Z,35.73
2018-11-23T10:16:45.467Z,30.57
2018-11-23T10:19:27.705Z,35.03
2018-11-23T10:21:59.317Z,35.73
2018-11-23T10:24:30.754Z,38.70
2018-11-23T10:27:02.322Z,37.50
2018-11-23T10:29:33.749Z,34.93
2018-11-23T10:32:05.529Z,34.17
2018-11-23T10:34:37.082Z,30.77
2018-11-23T10:37:08.774Z,32.47
2018-11-23T10:39:40.368Z,32.97
2018-11-23T10:42:12.127Z,33.10
2018-11-23T10:44:43.806Z,38.80
2018-11-23T10:47:15.377Z,34.60
2018-11-23T10:49:47.100Z,33.43
2018-11-23T10:52:18.861Z,40.07
2018-11-23T10:54:50.430Z,34.20
2018-11-23T10:57:22.133Z,35.07
2018-11-23T10:59:53.777Z,35.80
2018-11-23T11:02:30.454Z,36.17
2018-11-23T11:05:07.073Z,42.93
2018-11-23T11:07:38.786Z,38.37
2018-11-23T11:10:10.509Z,36.57
2018-11-23T11:12:41.961Z,34.67
2018-11-23T11:15:13.509Z,36.50
2018-11-23T11:17:45.047Z,34.93
2018-11-23T11:20:16.947Z,33.93
2018-11-23T11:22:48.635Z,36.17
2018-11-23T11:25:20.282Z,35.20
2018-11-23T11:27:51.893Z,37.93
2018-11-23T11:30:23.471Z,40.63
2018-11-23T11:32:55.215Z,37.20
2018-11-23T11:35:26.750Z,37.57
2018-11-23T11:37:58.416Z,34.80
2018-11-23T11:40:29.982Z,32.80
2018-11-23T11:43:01.635Z,37.33
2018-11-23T11:45:33.298Z,37.47
2018-11-23T11:48:04.992Z,32.30
2018-11-23T11:50:36.613Z,30.47
2018-11-23T11:53:08.405Z,31.27
2018-11-23T11:55:40.034Z,31.43
2018-11-23T11:58:11.674Z,28.80
2018-11-23T12:00:43.260Z,32.07
2018-11-23T12:03:14.981Z,34.60
2018-11-23T12:05:46.555Z,30.20
2018-11-23T12:08:18.070Z,36.87
2018-11-23T12:10:49.647Z,33.83
2018-11-23T12:13:21.115Z,34.93
2018-11-23T12:15:52.813Z,32.80
2018-11-23T12:18:24.365Z,31.53
2018-11-23T12:20:56.014Z,31.83
2018-11-23T12:23:27.646Z,29.90
2018-11-23T12:25:59.321Z,30.20
2018-11-23T12:28:30.843Z,30.07
2018-11-23T12:31:02.675Z,30.03
2018-11-23T12:33:34.165Z,31.17
2018-11-23T12:36:05.967Z,29.57
2018-11-23T12:38:40.184Z,30.30
2018-11-23T12:41:09.226Z,34.00
2018-11-23T12:43:40.917Z,32.53
2018-11-23T12:46:12.541Z,33.50
2018-11-23T12:48:44.352Z,28.97
2018-11-23T12:51:15.954Z,35.67
2018-11-23T12:53:47.539Z,34.27
2018-11-23T12:56:19.247Z,35.97
2018-11-23T12:58:50.861Z,38.93
2018-11-23T13:01:22.335Z,33.50
2018-11-23T13:03:54.246Z,34.70
2018-11-23T13:06:25.873Z,31.60
2018-11-23T13:08:57.562Z,28.70
2018-11-23T13:11:29.165Z,39.10
2018-11-23T13:14:00.852Z,37.13
2018-11-23T13:16:32.375Z,41.23
2018-11-23T13:19:04.071Z,36.33
2018-11-23T13:21:35.581Z,30.63
2018-11-23T13:24:07.398Z,35.23
2018-11-23T13:26:39.037Z,38.03
2018-11-23T13:29:16.068Z,35.67
2018-11-23T13:31:42.425Z,35.83
2018-11-23T13:34:13.986Z,36.00
2018-11-23T13:36:45.660Z,35.73
2018-11-23T13:39:17.178Z,36.03
2018-11-23T13:41:48.858Z,35.70
2018-11-23T13:44:20.403Z,35.80
2018-11-23T13:46:52.071Z,35.30
2018-11-23T13:49:23.600Z,35.00
2018-11-23T13:51:55.194Z,33.90
2018-11-23T13:54:26.881Z,32.17
2018-11-23T13:56:58.510Z,36.00
2018-11-23T13:59:30.245Z,37.97
2018-11-23T14:02:01.885Z,40.37
2018-11-23T14:04:33.582Z,40.33
2018-11-23T14:07:05.636Z,34.77
2018-11-23T14:09:37.093Z,37.57
2018-11-23T14:12:08.681Z,35.53
2018-11-23T14:14:40.306Z,37.60
2018-11-23T14:17:11.952Z,37.70
2018-11-23T14:19:43.588Z,39.20
2018-11-23T14:22:15.253Z,36.60
2018-11-23T14:24:46.798Z,37.23
2018-11-23T14:27:18.528Z,35.80
2018-11-23T14:29:50.225Z,39.93
2018-11-23T14:32:21.699Z,36.63
2018-11-23T14:34:53.522Z,35.73
2018-11-23T14:37:25.034Z,37.80
2018-11-23T14:39:56.646Z,41.10
2018-11-23T14:42:28.179Z,39.30
2018-11-23T14:44:59.797Z,37.40
2018-11-23T14:47:31.414Z,34.80
2018-11-23T14:50:02.985Z,35.37
2018-11-23T14:52:34.470Z,31.43
2018-11-23T14:55:07.008Z,34.57
2018-11-23T14:57:39.646Z,36.73
2018-11-23T15:00:19.021Z,38.13
2018-11-23T15:02:51.876Z,38.10
2018-11-23T15:05:23.636Z,36.97
2018-11-23T15:07:55.191Z,38.07
2018-11-23T15:10:28.212Z,40.60
2018-11-23T15:13:00.887Z,39.20
2018-11-23T15:15:33.889Z,37.77
2018-11-23T15:18:05.752Z,35.03
2018-11-23T15:20:42.419Z,36.87
2018-11-23T15:23:17.242Z,36.43
2018-11-23T15:25:48.992Z,37.30
2018-11-23T15:28:20.407Z,38.37
2018-11-23T15:30:52.098Z,45.47
2018-11-23T15:33:23.619Z,42.60
2018-11-23T15:35:55.311Z,38.53
2018-11-23T15:38:27.694Z,37.57
2018-11-23T15:40:59.265Z,34.40
2018-11-23T15:43:30.999Z,39.87
2018-11-23T15:46:02.630Z,37.47
2018-11-23T15:48:34.209Z,36.50
2018-11-23T15:51:08.598Z,35.30
2018-11-23T15:53:40.283Z,35.90
2018-11-23T15:56:11.832Z,37.13
2018-11-23T15:58:43.490Z,35.30
2018-11-23T16:01:15.027Z,35.07
2018-11-23T16:03:46.737Z,35.37
2018-11-23T16:06:18.404Z,37.33
2018-11-23T16:08:50.051Z,34.30
2018-11-23T16:11:21.670Z,37.40
2018-11-23T16:13:54.016Z,37.03
2018-11-23T16:16:24.977Z,34.70
2018-11-23T16:18:56.649Z,36.87
2018-11-23T16:21:28.389Z,35.27
2018-11-23T16:23:59.933Z,37.07
2018-11-23T16:26:31.601Z,39.13
2018-11-23T16:29:03.142Z,37.60
2018-11-23T16:31:34.814Z,40.20
2018-11-23T16:34:06.514Z,35.97
2018-11-23T16:36:38.148Z,35.17
2018-11-23T16:39:12.794Z,34.10
2018-11-23T16:41:44.425Z,28.93
2018-11-23T16:44:16.226Z,34.23
2018-11-23T16:46:47.742Z,37.10
2018-11-23T16:49:19.203Z,33.00
2018-11-23T16:51:50.826Z,32.00
2018-11-23T16:54:22.369Z,29.73
2018-11-23T16:56:54.042Z,24.00
2018-11-23T16:59:25.605Z,38.53
2018-11-23T17:01:58.149Z,29.83
2018-11-23T17:04:29.837Z,30.60
2018-11-23T17:07:01.298Z,30.53
2018-11-23T17:09:32.990Z,32.40
2018-11-23T17:12:04.521Z,31.67
2018-11-23T17:14:36.194Z,34.13
2018-11-23T17:17:07.829Z,30.03
2018-11-23T17:19:39.544Z,27.70
2018-11-23T17:22:11.104Z,30.33
2018-11-23T17:24:42.667Z,23.57
2018-11-23T17:27:14.308Z,38.93
2018-11-23T17:29:45.882Z,39.27
2018-11-23T17:32:17.427Z,35.07
2018-11-23T17:34:49.004Z,33.90
2018-11-23T17:37:20.793Z,38.17
2018-11-23T17:39:52.426Z,36.97
2018-11-23T17:42:24.591Z,28.70
2018-11-23T17:44:56.348Z,34.80
2018-11-23T17:47:27.962Z,32.40
2018-11-23T17:50:00.282Z,32.87
2018-11-23T17:52:31.870Z,35.97
2018-11-23T17:55:03.555Z,30.90
2018-11-23T17:57:35.141Z,36.03
2018-11-23T18:00:11.831Z,24.90
2018-11-23T18:02:43.990Z,28.10
2018-11-23T18:05:16.475Z,23.93
2018-11-23T18:07:48.295Z,36.03
2018-11-23T18:10:22.107Z,28.87
2018-11-23T18:12:54.165Z,32.73
2018-11-23T18:15:26.894Z,32.20
2018-11-23T18:17:59.518Z,25.20
2018-11-23T18:20:31.992Z,30.00
2018-11-23T18:23:04.311Z,25.60
2018-11-23T18:25:37.868Z,31.17
2018-11-23T18:28:09.432Z,28.50
2018-11-23T18:30:40.990Z,27.97
2018-11-23T18:33:12.596Z,28.20
2018-11-23T18:35:44.216Z,27.33
2018-11-23T18:38:15.963Z,23.40
2018-11-23T18:40:47.429Z,27.03
2018-11-23T18:43:19.177Z,25.10
2018-11-23T18:45:50.694Z,27.23
2018-11-23T18:48:22.377Z,31.50
2018-11-23T18:50:53.982Z,21.83
2018-11-23T18:53:25.706Z,21.70
2018-11-23T18:55:57.330Z,24.80
2018-11-23T18:58:28.902Z,26.63
2018-11-23T19:01:00.617Z,23.37
2018-11-23T19:03:32.128Z,24.07
2018-11-23T19:06:03.829Z,26.60
2018-11-23T19:08:35.432Z,24.23
2018-11-23T19:11:07.514Z,29.03
2018-11-23T19:13:39.307Z,29.03
2018-11-23T19:16:10.925Z,29.60
2018-11-23T19:18:42.671Z,30.20
2018-11-23T19:21:14.235Z,32.07
2018-11-23T19:23:45.988Z,28.13
2018-11-23T19:26:17.550Z,33.80
2018-11-23T19:28:49.291Z,25.30
2018-11-23T19:31:20.773Z,35.30
2018-11-23T19:33:53.157Z,36.93
2018-11-23T19:36:24.173Z,24.97
2018-11-23T19:38:55.822Z,25.53
2018-11-23T19:41:27.379Z,35.53
2018-11-23T19:43:58.913Z,25.03
2018-11-23T19:46:30.488Z,26.60
2018-11-23T19:49:02.186Z,34.37
2018-11-23T19:51:33.818Z,22.70
2018-11-23T19:54:05.464Z,22.03
2018-11-23T19:56:37.113Z,26.83
2018-11-23T19:59:08.536Z,26.97
2018-11-23T20:01:40.213Z,26.30
2018-11-23T20:04:11.751Z,24.63
2018-11-23T20:06:43.447Z,26.40
2018-11-23T20:09:14.969Z,28.90
2018-11-23T20:11:46.445Z,26.87
2018-11-23T20:14:18.137Z,28.90
2018-11-23T20:16:49.658Z,28.17
2018-11-23T20:19:21.479Z,23.37
2018-11-23T20:21:52.972Z,30.57
2018-11-23T20:24:24.702Z,29.20
2018-11-23T20:26:56.351Z,28.43
2018-11-23T20:29:28.009Z,33.20
2018-11-23T20:31:59.731Z,34.20
2018-11-23T20:34:31.341Z,35.43
2018-11-23T20:37:02.986Z,28.37
2018-11-23T20:39:34.457Z,32.97
2018-11-23T20:42:06.256Z,28.10
2018-11-23T20:44:37.885Z,25.27
2018-11-23T20:47:09.506Z,21.10
2018-11-23T20:49:45.675Z,24.83
2018-11-23T20:52:12.629Z,26.73
2018-11-23T20:54:44.714Z,28.83
2018-11-23T20:57:15.935Z,29.63
2018-11-23T20:59:47.576Z,30.23
2018-11-23T21:02:19.151Z,33.60
2018-11-23T21:04:50.786Z,28.53
2018-11-23T21:07:22.380Z,33.90
2018-11-23T21:09:54.049Z,32.90
2018-11-23T21:12:25.673Z,31.93
2018-11-23T21:14:57.270Z,28.73
2018-11-23T21:17:28.788Z,31.60
2018-11-23T21:20:00.534Z,34.77
2018-11-23T21:22:31.962Z,35.63
2018-11-23T21:25:03.647Z,35.70
2018-11-23T21:27:35.270Z,34.80
2018-11-23T21:30:17.535Z,35.13
2018-11-23T21:32:49.145Z,33.70
2018-11-23T21:35:20.862Z,33.57
2018-11-23T21:37:52.620Z,37.83
2018-11-23T21:40:24.159Z,33.93
2018-11-23T21:42:55.773Z,33.90
2018-11-23T21:45:27.382Z,30.37
2018-11-23T21:47:58.991Z,30.60
2018-11-23T21:50:30.565Z,31.03
2018-11-23T21:53:02.189Z,32.77
2018-11-23T21:55:33.885Z,31.67
2018-11-23T21:58:05.645Z,34.30
2018-11-23T22:00:37.313Z,33.27
2018-11-23T22:03:08.938Z,33.77
2018-11-23T22:05:40.687Z,36.17
2018-11-23T22:08:12.118Z,32.17
2018-11-23T22:10:43.795Z,30.20
2018-11-23T22:13:15.338Z,33.80
2018-11-23T22:15:47.002Z,32.83
2018-11-23T22:18:18.705Z,28.43
2018-11-23T22:20:50.230Z,26.93
2018-11-23T22:23:22.016Z,30.67
2018-11-23T22:25:53.526Z,30.23
2018-11-23T22:28:25.286Z,28.73
2018-11-23T22:30:56.846Z,29.80
2018-11-23T22:33:28.434Z,32.40
2018-11-23T22:36:00.065Z,30.30
2018-11-23T22:38:31.704Z,32.30
2018-11-23T22:41:03.190Z,30.33
2018-11-23T22:43:34.911Z,27.77
2018-11-23T22:46:06.491Z,31.93
2018-11-23T22:48:38.116Z,31.80
2018-11-23T22:51:09.648Z,29.93
2018-11-23T22:53:41.335Z,28.70
2018-11-23T22:56:12.868Z,25.87
2018-11-23T22:58:44.457Z,25.03
2018-11-23T23:01:16.198Z,26.47
2018-11-23T23:03:47.661Z,22.27
2018-11-23T23:06:19.190Z,23.93
2018-11-23T23:08:50.777Z,21.43
2018-11-23T23:11:22.466Z,22.87
2018-11-23T23:13:53.986Z,23.57
2018-11-23T23:16:25.786Z,22.73
2018-11-23T23:18:57.397Z,24.13
2018-11-23T23:21:29.178Z,24.80
2018-11-23T23:24:00.674Z,24.67
2018-11-23T23:26:32.261Z,25.73
2018-11-23T23:29:03.889Z,24.33
2018-11-23T23:31:35.560Z,24.50
2018-11-23T23:34:07.213Z,26.30
2018-11-23T23:36:38.879Z,22.63
2018-11-23T23:39:10.855Z,22.13
2018-11-23T23:41:42.403Z,19.90
2018-11-23T23:44:14.026Z,23.83
2018-11-23T23:46:45.598Z,25.27
2018-11-23T23:49:17.018Z,22.23
2018-11-23T23:51:48.614Z,22.87
2018-11-23T23:54:20.205Z,25.77
2018-11-23T23:56:51.738Z,25.47
2018-11-23T23:59:23.417Z,21.73
